sensor_id;sensor_type;location;lat;lon;timestamp;P1;durP1;ratioP1;P2;durP2;ratioP2
77722;SDS011;66890;42.656;23.394;2023-02-13T00:00:39;70.45;;;28.73;;
77722;SDS011;66890;42.656;23.394;2023-02-13T00:03:10;77.40;;;30.58;;
77722;SDS011;66890;42.656;23.394;2023-02-13T00:05:41;66.60;;;28.25;;
77722;SDS011;66890;42.656;23.394;2023-02-13T00:08:13;66.25;;;29.08;;
77722;SDS011;66890;42.656;23.394;2023-02-13T00:10:43;79.13;;;30.73;;
77722;SDS011;66890;42.656;23.394;2023-02-13T00:13:14;68.30;;;30.75;;
77722;SDS011;66890;42.656;23.394;2023-02-13T00:15:45;64.70;;;29.13;;
77722;SDS011;66890;42.656;23.394;2023-02-13T00:18:24;67.55;;;28.35;;
77722;SDS011;66890;42.656;23.394;2023-02-13T00:20:56;66.18;;;26.23;;
77722;SDS011;66890;42.656;23.394;2023-02-13T00:23:29;65.32;;;28.83;;
77722;SDS011;66890;42.656;23.394;2023-02-13T00:26:04;74.60;;;31.55;;
77722;SDS011;66890;42.656;23.394;2023-02-13T00:28:35;67.55;;;27.85;;
77722;SDS011;66890;42.656;23.394;2023-02-13T00:31:07;68.85;;;30.00;;
77722;SDS011;66890;42.656;23.394;2023-02-13T00:33:40;73.85;;;29.65;;
77722;SDS011;66890;42.656;23.394;2023-02-13T00:36:11;69.95;;;29.30;;
77722;SDS011;66890;42.656;23.394;2023-02-13T00:38:45;74.05;;;31.40;;
77722;SDS011;66890;42.656;23.394;2023-02-13T00:41:16;68.25;;;28.55;;
77722;SDS011;66890;42.656;23.394;2023-02-13T00:43:47;63.42;;;28.85;;
77722;SDS011;66890;42.656;23.394;2023-02-13T00:46:18;66.85;;;29.02;;
77722;SDS011;66890;42.656;23.394;2023-02-13T00:48:49;73.30;;;30.00;;
77722;SDS011;66890;42.656;23.394;2023-02-13T00:51:19;69.28;;;28.70;;
77722;SDS011;66890;42.656;23.394;2023-02-13T00:53:51;62.40;;;25.73;;
77722;SDS011;66890;42.656;23.394;2023-02-13T00:56:22;65.22;;;26.88;;
77722;SDS011;66890;42.656;23.394;2023-02-13T00:58:53;66.10;;;28.67;;
77722;SDS011;66890;42.656;23.394;2023-02-13T01:01:23;71.57;;;29.85;;
77722;SDS011;66890;42.656;23.394;2023-02-13T01:03:54;69.15;;;28.13;;
77722;SDS011;66890;42.656;23.394;2023-02-13T01:06:25;77.95;;;31.13;;
77722;SDS011;66890;42.656;23.394;2023-02-13T01:08:57;73.28;;;30.83;;
77722;SDS011;66890;42.656;23.394;2023-02-13T01:11:28;63.38;;;27.02;;
77722;SDS011;66890;42.656;23.394;2023-02-13T01:13:58;68.40;;;30.38;;
77722;SDS011;66890;42.656;23.394;2023-02-13T01:16:29;75.68;;;32.20;;
77722;SDS011;66890;42.656;23.394;2023-02-13T01:19:00;67.00;;;29.58;;
77722;SDS011;66890;42.656;23.394;2023-02-13T01:21:30;71.15;;;29.60;;
77722;SDS011;66890;42.656;23.394;2023-02-13T01:24:03;67.40;;;28.40;;
77722;SDS011;66890;42.656;23.394;2023-02-13T01:26:35;66.18;;;28.55;;
77722;SDS011;66890;42.656;23.394;2023-02-13T01:29:05;61.88;;;27.13;;
77722;SDS011;66890;42.656;23.394;2023-02-13T01:31:36;67.88;;;25.88;;
77722;SDS011;66890;42.656;23.394;2023-02-13T01:34:06;63.85;;;27.10;;
77722;SDS011;66890;42.656;23.394;2023-02-13T01:36:37;62.55;;;26.85;;
77722;SDS011;66890;42.656;23.394;2023-02-13T01:39:10;63.13;;;25.40;;
77722;SDS011;66890;42.656;23.394;2023-02-13T01:41:41;60.33;;;24.60;;
77722;SDS011;66890;42.656;23.394;2023-02-13T01:47:16;73.65;;;29.80;;
77722;SDS011;66890;42.656;23.394;2023-02-13T01:49:53;69.55;;;27.08;;
77722;SDS011;66890;42.656;23.394;2023-02-13T01:52:31;65.78;;;25.48;;
77722;SDS011;66890;42.656;23.394;2023-02-13T01:55:04;60.83;;;24.30;;
77722;SDS011;66890;42.656;23.394;2023-02-13T01:57:36;55.88;;;24.23;;
77722;SDS011;66890;42.656;23.394;2023-02-13T02:00:11;62.80;;;27.45;;
77722;SDS011;66890;42.656;23.394;2023-02-13T02:02:44;68.85;;;26.17;;
77722;SDS011;66890;42.656;23.394;2023-02-13T02:05:17;63.33;;;24.45;;
77722;SDS011;66890;42.656;23.394;2023-02-13T02:07:51;51.40;;;23.00;;
77722;SDS011;66890;42.656;23.394;2023-02-13T02:10:25;66.47;;;28.55;;
77722;SDS011;66890;42.656;23.394;2023-02-13T02:12:57;63.22;;;26.80;;
77722;SDS011;66890;42.656;23.394;2023-02-13T02:15:33;63.15;;;25.02;;
77722;SDS011;66890;42.656;23.394;2023-02-13T02:18:05;61.95;;;28.02;;
77722;SDS011;66890;42.656;23.394;2023-02-13T02:20:52;62.35;;;25.70;;
77722;SDS011;66890;42.656;23.394;2023-02-13T02:26:58;57.78;;;24.80;;
77722;SDS011;66890;42.656;23.394;2023-02-13T02:33:11;63.88;;;26.17;;
77722;SDS011;66890;42.656;23.394;2023-02-13T02:35:53;67.45;;;28.58;;
77722;SDS011;66890;42.656;23.394;2023-02-13T02:38:40;70.20;;;29.83;;
77722;SDS011;66890;42.656;23.394;2023-02-13T02:41:23;58.65;;;27.27;;
77722;SDS011;66890;42.656;23.394;2023-02-13T02:44:04;63.05;;;27.15;;
77722;SDS011;66890;42.656;23.394;2023-02-13T02:46:47;60.80;;;26.42;;
77722;SDS011;66890;42.656;23.394;2023-02-13T02:49:27;54.58;;;22.77;;
77722;SDS011;66890;42.656;23.394;2023-02-13T02:52:02;57.95;;;26.30;;
77722;SDS011;66890;42.656;23.394;2023-02-13T02:54:38;58.80;;;26.40;;
77722;SDS011;66890;42.656;23.394;2023-02-13T02:57:14;70.80;;;27.20;;
77722;SDS011;66890;42.656;23.394;2023-02-13T02:59:50;67.43;;;27.60;;
77722;SDS011;66890;42.656;23.394;2023-02-13T03:02:23;63.25;;;26.55;;
77722;SDS011;66890;42.656;23.394;2023-02-13T03:04:55;61.92;;;25.85;;
77722;SDS011;66890;42.656;23.394;2023-02-13T03:07:29;65.45;;;26.70;;
77722;SDS011;66890;42.656;23.394;2023-02-13T03:10:03;61.47;;;26.92;;
77722;SDS011;66890;42.656;23.394;2023-02-13T03:12:36;64.80;;;27.67;;
77722;SDS011;66890;42.656;23.394;2023-02-13T03:15:11;65.88;;;27.52;;
77722;SDS011;66890;42.656;23.394;2023-02-13T03:17:41;66.30;;;25.73;;
77722;SDS011;66890;42.656;23.394;2023-02-13T03:20:16;66.43;;;28.27;;
77722;SDS011;66890;42.656;23.394;2023-02-13T03:22:57;78.53;;;34.20;;
77722;SDS011;66890;42.656;23.394;2023-02-13T03:25:36;84.40;;;35.42;;
77722;SDS011;66890;42.656;23.394;2023-02-13T03:28:16;83.07;;;35.60;;
77722;SDS011;66890;42.656;23.394;2023-02-13T03:30:54;81.38;;;37.88;;
77722;SDS011;66890;42.656;23.394;2023-02-13T03:33:34;92.38;;;40.15;;
77722;SDS011;66890;42.656;23.394;2023-02-13T03:36:16;91.65;;;40.30;;
77722;SDS011;66890;42.656;23.394;2023-02-13T03:38:56;77.55;;;36.67;;
77722;SDS011;66890;42.656;23.394;2023-02-13T03:41:34;89.75;;;39.35;;
77722;SDS011;66890;42.656;23.394;2023-02-13T03:44:11;83.05;;;35.15;;
77722;SDS011;66890;42.656;23.394;2023-02-13T03:46:48;80.88;;;33.92;;
77722;SDS011;66890;42.656;23.394;2023-02-13T03:49:22;82.45;;;34.45;;
77722;SDS011;66890;42.656;23.394;2023-02-13T03:51:59;72.65;;;35.53;;
77722;SDS011;66890;42.656;23.394;2023-02-13T03:54:36;88.07;;;37.85;;
77722;SDS011;66890;42.656;23.394;2023-02-13T03:57:13;71.45;;;33.38;;
77722;SDS011;66890;42.656;23.394;2023-02-13T03:59:46;91.78;;;36.72;;
77722;SDS011;66890;42.656;23.394;2023-02-13T04:02:18;77.22;;;34.33;;
77722;SDS011;66890;42.656;23.394;2023-02-13T04:04:56;84.38;;;36.72;;
77722;SDS011;66890;42.656;23.394;2023-02-13T04:07:35;83.78;;;35.17;;
77722;SDS011;66890;42.656;23.394;2023-02-13T04:10:06;81.50;;;35.67;;
77722;SDS011;66890;42.656;23.394;2023-02-13T04:12:41;78.88;;;34.50;;
77722;SDS011;66890;42.656;23.394;2023-02-13T04:15:20;87.07;;;35.75;;
77722;SDS011;66890;42.656;23.394;2023-02-13T04:17:58;85.47;;;37.05;;
77722;SDS011;66890;42.656;23.394;2023-02-13T04:20:34;87.10;;;37.55;;
77722;SDS011;66890;42.656;23.394;2023-02-13T04:23:07;83.57;;;36.30;;
77722;SDS011;66890;42.656;23.394;2023-02-13T04:25:40;77.20;;;36.60;;
77722;SDS011;66890;42.656;23.394;2023-02-13T04:28:13;84.88;;;36.78;;
77722;SDS011;66890;42.656;23.394;2023-02-13T04:30:43;80.93;;;36.08;;
77722;SDS011;66890;42.656;23.394;2023-02-13T04:33:14;90.82;;;39.10;;
77722;SDS011;66890;42.656;23.394;2023-02-13T04:35:44;82.05;;;35.80;;
77722;SDS011;66890;42.656;23.394;2023-02-13T04:38:16;70.80;;;32.00;;
77722;SDS011;66890;42.656;23.394;2023-02-13T04:40:47;76.75;;;34.58;;
77722;SDS011;66890;42.656;23.394;2023-02-13T04:43:17;71.05;;;32.53;;
77722;SDS011;66890;42.656;23.394;2023-02-13T04:45:48;66.63;;;29.30;;
77722;SDS011;66890;42.656;23.394;2023-02-13T04:48:19;74.65;;;31.92;;
77722;SDS011;66890;42.656;23.394;2023-02-13T04:50:49;85.15;;;35.95;;
77722;SDS011;66890;42.656;23.394;2023-02-13T04:53:22;76.15;;;35.55;;
77722;SDS011;66890;42.656;23.394;2023-02-13T04:55:52;66.43;;;31.30;;
77722;SDS011;66890;42.656;23.394;2023-02-13T04:58:23;71.63;;;31.38;;
77722;SDS011;66890;42.656;23.394;2023-02-13T05:00:53;66.05;;;29.30;;
77722;SDS011;66890;42.656;23.394;2023-02-13T05:03:24;82.72;;;32.92;;
77722;SDS011;66890;42.656;23.394;2023-02-13T05:05:54;76.90;;;31.10;;
77722;SDS011;66890;42.656;23.394;2023-02-13T05:08:26;75.22;;;31.90;;
77722;SDS011;66890;42.656;23.394;2023-02-13T05:10:57;75.70;;;33.88;;
77722;SDS011;66890;42.656;23.394;2023-02-13T05:13:28;77.15;;;33.35;;
77722;SDS011;66890;42.656;23.394;2023-02-13T05:15:58;72.45;;;34.00;;
77722;SDS011;66890;42.656;23.394;2023-02-13T05:18:29;78.32;;;33.40;;
77722;SDS011;66890;42.656;23.394;2023-02-13T05:20:59;73.65;;;33.88;;
77722;SDS011;66890;42.656;23.394;2023-02-13T05:23:31;75.28;;;32.30;;
77722;SDS011;66890;42.656;23.394;2023-02-13T05:26:02;82.30;;;31.73;;
77722;SDS011;66890;42.656;23.394;2023-02-13T05:28:33;75.80;;;31.45;;
77722;SDS011;66890;42.656;23.394;2023-02-13T05:31:04;71.22;;;30.92;;
77722;SDS011;66890;42.656;23.394;2023-02-13T05:33:34;76.82;;;29.85;;
77722;SDS011;66890;42.656;23.394;2023-02-13T05:36:05;66.63;;;30.77;;
77722;SDS011;66890;42.656;23.394;2023-02-13T05:38:38;78.47;;;33.92;;
77722;SDS011;66890;42.656;23.394;2023-02-13T05:41:08;74.32;;;32.08;;
77722;SDS011;66890;42.656;23.394;2023-02-13T05:43:39;58.60;;;27.95;;
77722;SDS011;66890;42.656;23.394;2023-02-13T05:46:09;62.38;;;28.05;;
77722;SDS011;66890;42.656;23.394;2023-02-13T05:48:40;57.13;;;24.92;;
77722;SDS011;66890;42.656;23.394;2023-02-13T05:51:11;62.17;;;27.73;;
77722;SDS011;66890;42.656;23.394;2023-02-13T05:53:43;60.15;;;27.33;;
77722;SDS011;66890;42.656;23.394;2023-02-13T05:56:13;62.35;;;25.38;;
77722;SDS011;66890;42.656;23.394;2023-02-13T05:58:44;51.90;;;25.60;;
77722;SDS011;66890;42.656;23.394;2023-02-13T06:01:14;59.00;;;25.25;;
77722;SDS011;66890;42.656;23.394;2023-02-13T06:03:45;54.67;;;25.90;;
77722;SDS011;66890;42.656;23.394;2023-02-13T06:06:16;51.28;;;23.42;;
77722;SDS011;66890;42.656;23.394;2023-02-13T06:08:48;48.20;;;22.08;;
77722;SDS011;66890;42.656;23.394;2023-02-13T06:11:18;40.30;;;19.08;;
77722;SDS011;66890;42.656;23.394;2023-02-13T06:13:49;46.38;;;18.52;;
77722;SDS011;66890;42.656;23.394;2023-02-13T06:16:20;38.20;;;17.30;;
77722;SDS011;66890;42.656;23.394;2023-02-13T06:18:50;43.22;;;19.23;;
77722;SDS011;66890;42.656;23.394;2023-02-13T06:21:21;43.90;;;19.83;;
77722;SDS011;66890;42.656;23.394;2023-02-13T06:23:53;46.70;;;19.88;;
77722;SDS011;66890;42.656;23.394;2023-02-13T06:26:23;39.58;;;18.85;;
77722;SDS011;66890;42.656;23.394;2023-02-13T06:28:54;45.13;;;19.10;;
77722;SDS011;66890;42.656;23.394;2023-02-13T06:31:25;42.50;;;18.15;;
77722;SDS011;66890;42.656;23.394;2023-02-13T06:33:55;40.95;;;18.95;;
77722;SDS011;66890;42.656;23.394;2023-02-13T06:36:26;45.63;;;19.85;;
77722;SDS011;66890;42.656;23.394;2023-02-13T06:38:58;52.90;;;20.73;;
77722;SDS011;66890;42.656;23.394;2023-02-13T06:41:29;45.65;;;21.27;;
77722;SDS011;66890;42.656;23.394;2023-02-13T06:43:59;40.13;;;18.30;;
77722;SDS011;66890;42.656;23.394;2023-02-13T06:46:30;40.20;;;19.02;;
77722;SDS011;66890;42.656;23.394;2023-02-13T06:49:00;42.75;;;19.80;;
77722;SDS011;66890;42.656;23.394;2023-02-13T06:51:31;47.75;;;21.55;;
77722;SDS011;66890;42.656;23.394;2023-02-13T06:54:03;45.92;;;20.95;;
77722;SDS011;66890;42.656;23.394;2023-02-13T06:56:34;44.40;;;19.88;;
77722;SDS011;66890;42.656;23.394;2023-02-13T06:59:04;40.70;;;20.05;;
77722;SDS011;66890;42.656;23.394;2023-02-13T07:01:35;50.05;;;19.38;;
77722;SDS011;66890;42.656;23.394;2023-02-13T07:04:05;35.67;;;17.45;;
77722;SDS011;66890;42.656;23.394;2023-02-13T07:06:36;53.88;;;22.52;;
77722;SDS011;66890;42.656;23.394;2023-02-13T07:09:08;44.05;;;20.25;;
77722;SDS011;66890;42.656;23.394;2023-02-13T07:11:38;43.63;;;21.63;;
77722;SDS011;66890;42.656;23.394;2023-02-13T07:14:09;48.80;;;20.98;;
77722;SDS011;66890;42.656;23.394;2023-02-13T07:16:40;46.13;;;19.33;;
77722;SDS011;66890;42.656;23.394;2023-02-13T07:19:10;38.90;;;19.42;;
77722;SDS011;66890;42.656;23.394;2023-02-13T07:21:41;45.80;;;21.70;;
77722;SDS011;66890;42.656;23.394;2023-02-13T07:24:13;51.03;;;23.13;;
77722;SDS011;66890;42.656;23.394;2023-02-13T07:26:43;43.15;;;20.38;;
77722;SDS011;66890;42.656;23.394;2023-02-13T07:29:14;47.47;;;24.23;;
77722;SDS011;66890;42.656;23.394;2023-02-13T07:31:45;56.55;;;27.15;;
77722;SDS011;66890;42.656;23.394;2023-02-13T07:34:15;60.13;;;25.88;;
77722;SDS011;66890;42.656;23.394;2023-02-13T07:36:46;56.38;;;27.55;;
77722;SDS011;66890;42.656;23.394;2023-02-13T07:39:18;57.25;;;27.95;;
77722;SDS011;66890;42.656;23.394;2023-02-13T07:41:49;64.90;;;29.40;;
77722;SDS011;66890;42.656;23.394;2023-02-13T07:44:20;61.40;;;29.55;;
77722;SDS011;66890;42.656;23.394;2023-02-13T07:46:51;58.80;;;27.40;;
77722;SDS011;66890;42.656;23.394;2023-02-13T07:49:21;58.67;;;26.98;;
77722;SDS011;66890;42.656;23.394;2023-02-13T07:51:52;58.78;;;27.65;;
77722;SDS011;66890;42.656;23.394;2023-02-13T07:54:26;59.53;;;28.52;;
77722;SDS011;66890;42.656;23.394;2023-02-13T07:56:56;56.95;;;27.33;;
77722;SDS011;66890;42.656;23.394;2023-02-13T07:59:28;61.50;;;27.92;;
77722;SDS011;66890;42.656;23.394;2023-02-13T08:01:59;67.90;;;29.92;;
77722;SDS011;66890;42.656;23.394;2023-02-13T08:04:29;77.90;;;34.75;;
77722;SDS011;66890;42.656;23.394;2023-02-13T08:07:00;75.50;;;34.95;;
77722;SDS011;66890;42.656;23.394;2023-02-13T08:09:32;75.38;;;35.35;;
77722;SDS011;66890;42.656;23.394;2023-02-13T08:12:04;78.28;;;34.47;;
77722;SDS011;66890;42.656;23.394;2023-02-13T08:17:08;67.10;;;31.45;;
77722;SDS011;66890;42.656;23.394;2023-02-13T08:19:38;66.15;;;31.50;;
77722;SDS011;66890;42.656;23.394;2023-02-13T08:22:09;74.00;;;35.17;;
77722;SDS011;67811;42.656;23.394;2023-02-13T08:24:41;64.03;;;32.90;;
77722;SDS011;67811;42.656;23.394;2023-02-13T08:27:11;70.47;;;32.75;;
77722;SDS011;67811;42.656;23.394;2023-02-13T08:29:43;68.40;;;34.05;;
77722;SDS011;67811;42.656;23.394;2023-02-13T08:32:13;76.07;;;34.20;;
77722;SDS011;67811;42.656;23.394;2023-02-13T08:34:44;69.00;;;32.83;;
77722;SDS011;67811;42.656;23.394;2023-02-13T08:37:14;65.55;;;33.42;;
77722;SDS011;67811;42.656;23.394;2023-02-13T08:39:47;72.18;;;35.15;;
77722;SDS011;67811;42.656;23.394;2023-02-13T08:42:17;68.65;;;31.20;;
77722;SDS011;67811;42.656;23.394;2023-02-13T08:44:48;66.50;;;32.00;;
77722;SDS011;67811;42.656;23.394;2023-02-13T08:47:18;64.82;;;31.27;;
77722;SDS011;67811;42.656;23.394;2023-02-13T08:49:49;68.82;;;32.10;;
77722;SDS011;67811;42.656;23.394;2023-02-13T08:52:19;66.13;;;33.40;;
77722;SDS011;67811;42.656;23.394;2023-02-13T08:54:51;66.13;;;32.38;;
77722;SDS011;67811;42.656;23.394;2023-02-13T08:57:22;71.82;;;35.58;;
77722;SDS011;67811;42.656;23.394;2023-02-13T08:59:53;67.60;;;33.63;;
77722;SDS011;67811;42.656;23.394;2023-02-13T09:02:23;65.53;;;29.35;;
77722;SDS011;67811;42.656;23.394;2023-02-13T09:04:54;61.50;;;29.17;;
77722;SDS011;67811;42.656;23.394;2023-02-13T09:07:24;60.17;;;29.35;;
77722;SDS011;67811;42.656;23.394;2023-02-13T09:09:56;62.35;;;28.85;;
77722;SDS011;67811;42.656;23.394;2023-02-13T09:12:27;52.97;;;25.05;;
77722;SDS011;67811;42.656;23.394;2023-02-13T09:14:57;59.92;;;25.88;;
77722;SDS011;67811;42.656;23.394;2023-02-13T09:17:28;51.97;;;24.45;;
77722;SDS011;67811;42.656;23.394;2023-02-13T09:19:58;53.22;;;24.48;;
77722;SDS011;67811;42.656;23.394;2023-02-13T09:22:29;52.00;;;24.88;;
77722;SDS011;67811;42.656;23.394;2023-02-13T09:25:01;56.60;;;25.55;;
77722;SDS011;67811;42.656;23.394;2023-02-13T09:27:32;55.97;;;25.85;;
77722;SDS011;67811;42.656;23.394;2023-02-13T09:30:03;54.72;;;25.60;;
77722;SDS011;67811;42.656;23.394;2023-02-13T09:32:34;60.58;;;27.73;;
77722;SDS011;67811;42.656;23.394;2023-02-13T09:35:05;58.65;;;25.67;;
77722;SDS011;67811;42.656;23.394;2023-02-13T09:37:36;58.08;;;27.58;;
77722;SDS011;67811;42.656;23.394;2023-02-13T09:40:12;60.63;;;27.35;;
77722;SDS011;67811;42.656;23.394;2023-02-13T09:42:47;49.65;;;24.00;;
77722;SDS011;67811;42.656;23.394;2023-02-13T09:45:19;56.67;;;26.45;;
77722;SDS011;67811;42.656;23.394;2023-02-13T09:47:50;53.25;;;25.73;;
77722;SDS011;67811;42.656;23.394;2023-02-13T09:50:22;59.75;;;27.25;;
77722;SDS011;67811;42.656;23.394;2023-02-13T09:52:54;53.72;;;26.08;;
77722;SDS011;67811;42.656;23.394;2023-02-13T09:55:30;59.08;;;27.00;;
77722;SDS011;67811;42.656;23.394;2023-02-13T09:58:11;55.10;;;25.85;;
77722;SDS011;67811;42.656;23.394;2023-02-13T10:00:48;55.00;;;26.65;;
77722;SDS011;67811;42.656;23.394;2023-02-13T10:03:23;53.83;;;25.27;;
77722;SDS011;67811;42.656;23.394;2023-02-13T10:06:03;57.53;;;29.20;;
77722;SDS011;67811;42.656;23.394;2023-02-13T10:08:47;55.83;;;27.38;;
77722;SDS011;67811;42.656;23.394;2023-02-13T10:11:34;56.97;;;26.52;;
77722;SDS011;67811;42.656;23.394;2023-02-13T10:14:20;58.97;;;27.15;;
77722;SDS011;67811;42.656;23.394;2023-02-13T10:16:57;60.33;;;28.98;;
77722;SDS011;67811;42.656;23.394;2023-02-13T10:19:33;54.25;;;26.88;;
77722;SDS011;67811;42.656;23.394;2023-02-13T10:22:09;62.40;;;28.17;;
77722;SDS011;67811;42.656;23.394;2023-02-13T10:24:44;59.05;;;29.83;;
77722;SDS011;67811;42.656;23.394;2023-02-13T10:27:21;61.08;;;27.50;;
77722;SDS011;67811;42.656;23.394;2023-02-13T10:29:54;62.45;;;29.05;;
77722;SDS011;67811;42.656;23.394;2023-02-13T10:32:29;60.60;;;26.88;;
77722;SDS011;67811;42.656;23.394;2023-02-13T10:35:13;53.83;;;27.35;;
77722;SDS011;67811;42.656;23.394;2023-02-13T10:37:48;55.17;;;28.48;;
77722;SDS011;67811;42.656;23.394;2023-02-13T10:40:23;59.75;;;29.15;;
77722;SDS011;67811;42.656;23.394;2023-02-13T10:43:03;64.88;;;30.63;;
77722;SDS011;67811;42.656;23.394;2023-02-13T10:45:44;61.05;;;28.50;;
77722;SDS011;67811;42.656;23.394;2023-02-13T10:48:30;66.22;;;30.75;;
77722;SDS011;67811;42.656;23.394;2023-02-13T10:51:18;59.58;;;27.38;;
77722;SDS011;67811;42.656;23.394;2023-02-13T10:54:02;62.42;;;29.60;;
77722;SDS011;67811;42.656;23.394;2023-02-13T10:56:47;59.33;;;26.10;;
77722;SDS011;67811;42.656;23.394;2023-02-13T10:59:33;60.75;;;26.02;;
77722;SDS011;67811;42.656;23.394;2023-02-13T11:02:20;52.88;;;26.42;;
77722;SDS011;67811;42.656;23.394;2023-02-13T11:04:53;60.58;;;25.95;;
77722;SDS011;67811;42.656;23.394;2023-02-13T11:07:28;62.08;;;27.45;;
77722;SDS011;67811;42.656;23.394;2023-02-13T11:10:02;60.20;;;25.92;;
77722;SDS011;67811;42.656;23.394;2023-02-13T11:12:42;59.83;;;26.45;;
77722;SDS011;67811;42.656;23.394;2023-02-13T11:15:22;60.70;;;28.60;;
77722;SDS011;67811;42.656;23.394;2023-02-13T11:17:55;56.85;;;25.50;;
77722;SDS011;67811;42.656;23.394;2023-02-13T11:20:29;54.47;;;24.73;;
77722;SDS011;67811;42.656;23.394;2023-02-13T11:23:16;54.58;;;23.58;;
77722;SDS011;67811;42.656;23.394;2023-02-13T11:25:58;55.28;;;24.90;;
77722;SDS011;67811;42.656;23.394;2023-02-13T11:28:30;49.70;;;21.73;;
77722;SDS011;67811;42.656;23.394;2023-02-13T11:31:13;45.50;;;21.00;;
77722;SDS011;67811;42.656;23.394;2023-02-13T11:33:50;52.75;;;23.73;;
77722;SDS011;67811;42.656;23.394;2023-02-13T11:36:23;50.88;;;22.85;;
77722;SDS011;67811;42.656;23.394;2023-02-13T11:38:56;47.72;;;22.25;;
77722;SDS011;67811;42.656;23.394;2023-02-13T11:41:29;52.95;;;23.05;;
77722;SDS011;67811;42.656;23.394;2023-02-13T11:44:01;49.25;;;20.70;;
77722;SDS011;67811;42.656;23.394;2023-02-13T11:46:44;46.95;;;18.88;;
77722;SDS011;67811;42.656;23.394;2023-02-13T11:49:18;41.17;;;19.48;;
77722;SDS011;67811;42.656;23.394;2023-02-13T11:51:50;40.53;;;19.33;;
77722;SDS011;67811;42.656;23.394;2023-02-13T11:54:24;49.72;;;21.40;;
77722;SDS011;67811;42.656;23.394;2023-02-13T11:56:59;37.03;;;19.58;;
77722;SDS011;67811;42.656;23.394;2023-02-13T11:59:31;40.88;;;20.20;;
77722;SDS011;67811;42.656;23.394;2023-02-13T12:02:13;44.42;;;20.17;;
77722;SDS011;67811;42.656;23.394;2023-02-13T12:04:47;40.33;;;17.33;;
77722;SDS011;67811;42.656;23.394;2023-02-13T12:07:21;40.42;;;18.75;;
77722;SDS011;67811;42.656;23.394;2023-02-13T12:09:58;37.10;;;17.92;;
77722;SDS011;67811;42.656;23.394;2023-02-13T12:12:33;39.47;;;17.55;;
77722;SDS011;67811;42.656;23.394;2023-02-13T12:15:14;35.55;;;16.08;;
77722;SDS011;67811;42.656;23.394;2023-02-13T12:17:48;29.60;;;15.25;;
77722;SDS011;67811;42.656;23.394;2023-02-13T12:20:29;35.72;;;16.42;;
77722;SDS011;67811;42.656;23.394;2023-02-13T12:23:16;32.17;;;14.27;;
77722;SDS011;67811;42.656;23.394;2023-02-13T12:26:02;35.38;;;15.85;;
77722;SDS011;67811;42.656;23.394;2023-02-13T12:28:57;36.53;;;15.57;;
77722;SDS011;67811;42.656;23.394;2023-02-13T12:31:54;26.60;;;13.50;;
77722;SDS011;67811;42.656;23.394;2023-02-13T12:34:54;26.27;;;13.40;;
77722;SDS011;67811;42.656;23.394;2023-02-13T12:37:49;23.58;;;10.90;;
77722;SDS011;67811;42.656;23.394;2023-02-13T12:46:40;28.13;;;12.45;;
77722;SDS011;67811;42.656;23.394;2023-02-13T12:49:35;28.48;;;12.02;;
77722;SDS011;67811;42.656;23.394;2023-02-13T12:55:18;20.15;;;9.98;;
77722;SDS011;67811;42.656;23.394;2023-02-13T12:58:08;19.73;;;10.80;;
77722;SDS011;67811;42.656;23.394;2023-02-13T13:00:55;18.63;;;9.85;;
77722;SDS011;67811;42.656;23.394;2023-02-13T13:03:38;20.98;;;10.63;;
77722;SDS011;67811;42.656;23.394;2023-02-13T13:06:22;23.60;;;11.00;;
77722;SDS011;67811;42.656;23.394;2023-02-13T13:09:15;19.52;;;9.55;;
77722;SDS011;67811;42.656;23.394;2023-02-13T13:15:03;16.48;;;8.85;;
77722;SDS011;67811;42.656;23.394;2023-02-13T13:17:46;17.27;;;9.15;;
77722;SDS011;67811;42.656;23.394;2023-02-13T13:20:35;28.85;;;9.73;;
77722;SDS011;67811;42.656;23.394;2023-02-13T13:23:17;22.98;;;9.10;;
77722;SDS011;67811;42.656;23.394;2023-02-13T13:25:55;20.50;;;9.85;;
77722;SDS011;67811;42.656;23.394;2023-02-13T13:28:36;17.42;;;8.05;;
77722;SDS011;67811;42.656;23.394;2023-02-13T13:31:09;19.98;;;9.23;;
77722;SDS011;67811;42.656;23.394;2023-02-13T13:33:43;21.90;;;9.73;;
77722;SDS011;67811;42.656;23.394;2023-02-13T13:36:18;22.05;;;9.00;;
77722;SDS011;67811;42.656;23.394;2023-02-13T13:38:56;19.50;;;9.60;;
77722;SDS011;67811;42.656;23.394;2023-02-13T13:41:40;25.45;;;11.57;;
77722;SDS011;67811;42.656;23.394;2023-02-13T13:44:19;21.77;;;10.52;;
77722;SDS011;67811;42.656;23.394;2023-02-13T13:47:03;20.23;;;9.52;;
77722;SDS011;67811;42.656;23.394;2023-02-13T13:49:47;23.92;;;10.90;;
77722;SDS011;67811;42.656;23.394;2023-02-13T13:52:23;23.30;;;10.65;;
77722;SDS011;67811;42.656;23.394;2023-02-13T13:54:55;18.25;;;9.98;;
77722;SDS011;67811;42.656;23.394;2023-02-13T13:57:29;25.73;;;10.02;;
77722;SDS011;67811;42.656;23.394;2023-02-13T14:00:29;26.40;;;9.80;;
77722;SDS011;67811;42.656;23.394;2023-02-13T14:06:06;22.98;;;11.65;;
77722;SDS011;67811;42.656;23.394;2023-02-13T14:11:37;20.80;;;10.02;;
77722;SDS011;67811;42.656;23.394;2023-02-13T14:20:28;16.65;;;9.13;;
77722;SDS011;67811;42.656;23.394;2023-02-13T14:23:07;23.48;;;11.45;;
77722;SDS011;67811;42.656;23.394;2023-02-13T14:25:49;20.25;;;9.93;;
77722;SDS011;67811;42.656;23.394;2023-02-13T14:28:38;19.50;;;10.25;;
77722;SDS011;67811;42.656;23.394;2023-02-13T14:31:15;23.67;;;10.15;;
77722;SDS011;67811;42.656;23.394;2023-02-13T14:33:55;20.95;;;10.93;;
77722;SDS011;67811;42.656;23.394;2023-02-13T14:36:29;20.80;;;9.88;;
77722;SDS011;67811;42.656;23.394;2023-02-13T14:39:03;21.85;;;11.05;;
77722;SDS011;67811;42.656;23.394;2023-02-13T14:41:41;24.92;;;11.48;;
77722;SDS011;67811;42.656;23.394;2023-02-13T14:44:15;20.77;;;10.40;;
77722;SDS011;67811;42.656;23.394;2023-02-13T14:46:49;24.77;;;10.98;;
77722;SDS011;67811;42.656;23.394;2023-02-13T14:49:23;19.85;;;10.00;;
77722;SDS011;67811;42.656;23.394;2023-02-13T14:51:57;26.48;;;12.02;;
77722;SDS011;67811;42.656;23.394;2023-02-13T14:54:31;26.42;;;11.35;;
77722;SDS011;67811;42.656;23.394;2023-02-13T14:57:04;21.88;;;11.27;;
77722;SDS011;67811;42.656;23.394;2023-02-13T14:59:37;26.80;;;11.65;;
77722;SDS011;67811;42.656;23.394;2023-02-13T15:02:15;24.40;;;10.63;;
77722;SDS011;67811;42.656;23.394;2023-02-13T15:04:54;24.90;;;11.80;;
77722;SDS011;67811;42.656;23.394;2023-02-13T15:07:27;22.52;;;10.40;;
77722;SDS011;67811;42.656;23.394;2023-02-13T15:10:05;27.67;;;12.57;;
77722;SDS011;67811;42.656;23.394;2023-02-13T15:12:55;22.42;;;11.13;;
77722;SDS011;67811;42.656;23.394;2023-02-13T15:15:27;19.85;;;11.10;;
77722;SDS011;67811;42.656;23.394;2023-02-13T15:18:01;21.20;;;10.45;;
77722;SDS011;67811;42.656;23.394;2023-02-13T15:20:35;19.23;;;10.45;;
77722;SDS011;67811;42.656;23.394;2023-02-13T15:23:12;25.35;;;10.65;;
77722;SDS011;67811;42.656;23.394;2023-02-13T15:25:54;22.95;;;11.40;;
77722;SDS011;67811;42.656;23.394;2023-02-13T15:28:26;18.90;;;10.18;;